OPDR Andalucia — ECKZ — position and weather

sailwx.info

Track history (hours):
 
Tides and Currents Weather Stations Pressure Air Temp Water Temp Dewpoint Dewpoint Depression Visibility Wind Speed Wind Dir Waves Ship Positions

OPDR Andalucia

Last reported at 2018-Jan-09 16:21 UTC. Time now 2018-Jan-19 19:30 UTC.
Position N 28°39' W 014°52'.
Warning: this ship's position is 10 days out of date.

Length 145 m; draft 5 m.

Type: Ship (hazmat cat A). MMSI: 225302000.

Date/timePositionNaut miles runAvg speedWind from/ knotsBaromVisibWave heightAir tempDewpointWater temp
2018-Jan-09 16:21N 28°39' W 014°52'515.4
2018-Jan-09 16:00N 28°35' W 014°56'815.3
2018-Jan-09 15:30N 28°30' W 015°02'815.4
2018-Jan-09 15:00N 28°24' W 015°08'815.3
2018-Jan-09 14:30N 28°18' W 015°13'815.2
2018-Jan-09 14:00N 28°12' W 015°19'714.1
2018-Jan-09 13:30N 28°07' W 015°24'2 2.9
2018-Jan-09 12:53N 28°09' W 015°25'0 0.0
2018-Jan-09 12:28N 28°09' W 015°25'0 0.0
2018-Jan-09 11:58N 28°09' W 015°25'0 0.0
2018-Jan-09 11:28N 28°09' W 015°25'0 0.0
2018-Jan-09 10:58N 28°09' W 015°25'0 0.0
2018-Jan-09 10:28N 28°09' W 015°25'0 0.0
2018-Jan-09 09:56N 28°09' W 015°25'0 0.0
2018-Jan-09 09:22N 28°09' W 015°25'0 0.0
2018-Jan-09 08:52N 28°09' W 015°25'0 0.0
2018-Jan-09 08:28N 28°09' W 015°25'0 0.0
2018-Jan-09 07:56N 28°09' W 015°25'0 0.0
2018-Jan-09 07:29N 28°09' W 015°25'0 0.0
2018-Jan-09 07:00N 28°09' W 015°25'0 0.0
2018-Jan-09 06:22N 28°09' W 015°25'0 0.0
2018-Jan-09 05:54N 28°09' W 015°25'0 0.0
2018-Jan-09 05:26N 28°09' W 015°25'0 0.0
2018-Jan-09 04:56N 28°09' W 015°25'0 0.0
2018-Jan-09 04:24N 28°09' W 015°25'0 0.0
2018-Jan-09 03:53N 28°09' W 015°25'0 0.0
2018-Jan-09 03:30N 28°09' W 015°25'0 0.0
2018-Jan-09 02:58N 28°09' W 015°25'0 0.0
2018-Jan-09 02:30N 28°09' W 015°25'0 0.0
2018-Jan-09 01:58N 28°09' W 015°25'0 0.0
2018-Jan-09 01:30N 28°09' W 015°25'0 0.0
2018-Jan-09 01:00N 28°09' W 015°25'0 0.0
2018-Jan-09 00:28N 28°09' W 015°25'0 0.0
2018-Jan-09 00:00N 28°09' W 015°25'0 0.0
2018-Jan-08 23:28N 28°09' W 015°25'2 3.4
2018-Jan-08 23:01N 28°07' W 015°24'2 3.4
2018-Jan-08 22:30N 28°08' W 015°23'0 0.9
2018-Jan-08 22:00N 28°08' W 015°23'5 9.5
2018-Jan-08 21:30N 28°13' W 015°24'714.8
2018-Jan-08 21:00N 28°15' W 015°32'715.0
2018-Jan-08 20:30N 28°18' W 015°40'815.1
2018-Jan-08 20:00N 28°21' W 015°48'815.2
2018-Jan-08 19:30N 28°23' W 015°56'815.1
2018-Jan-08 19:00N 28°26' W 016°04'9 1.3
2018-Jan-08 12:26N 28°29' W 016°13'0 0.0
2018-Jan-08 11:58N 28°29' W 016°13'0 0.0
2018-Jan-08 11:29N 28°29' W 016°13'0 0.0
2018-Jan-08 10:59N 28°29' W 016°13'0 0.0
2018-Jan-08 10:29N 28°29' W 016°13'0 0.0
2018-Jan-08 09:59N 28°29' W 016°13'0 0.0
2018-Jan-08 09:29N 28°29' W 016°13'0 0.0
2018-Jan-08 09:00N 28°29' W 016°13'0 0.0
2018-Jan-08 08:30N 28°29' W 016°13'0 0.0
2018-Jan-08 07:58N 28°29' W 016°13'0 0.0
2018-Jan-08 07:30N 28°29' W 016°13'0 0.0
2018-Jan-08 07:00N 28°29' W 016°13'1 1.7
2018-Jan-08 06:30N 28°29' W 016°13'5 9.8
2018-Jan-08 06:01N 28°30' W 016°08'713.6
2018-Jan-08 05:31N 28°34' W 016°02'714.0
2018-Jan-08 05:00N 28°39' W 015°56'  
2018-Jan-03 15:14N 30°49' W 012°42'314.5
2018-Jan-03 15:01N 30°47' W 012°45'714.4
2018-Jan-03 14:30N 30°41' W 012°50'714.7
2018-Jan-03 14:00N 30°36' W 012°56'714.4
2018-Jan-03 13:30N 30°30' W 013°01'714.0
2018-Jan-03 13:00N 30°25' W 013°06'714.3
2018-Jan-03 12:30N 30°19' W 013°12'714.0
2018-Jan-03 12:00N 30°14' W 013°17'5413.8
2018-Jan-03 08:07N 29°34' W 013°58'214.0
2018-Jan-03 08:00N 29°32' W 013°59'714.0
2018-Jan-03 07:30N 29°27' W 014°04'814.3
2018-Jan-03 06:58N 29°21' W 014°10'714.3
2018-Jan-03 06:30N 29°16' W 014°15'714.2
2018-Jan-03 06:00N 29°11' W 014°20'714.3
2018-Jan-03 05:30N 29°06' W 014°26'814.3
2018-Jan-03 04:55N 28°59' W 014°32'714.4
2018-Jan-03 04:26N 28°54' W 014°37'614.3
2018-Jan-03 04:01N 28°50' W 014°42'714.4
2018-Jan-03 03:30N 28°44' W 014°47'714.4
2018-Jan-03 03:00N 28°39' W 014°53'714.4
2018-Jan-03 02:30N 28°33' W 014°58'714.4
2018-Jan-03 02:00N 28°28' W 015°04'714.6
2018-Jan-03 01:31N 28°22' W 015°09'714.8
2018-Jan-03 01:00N 28°17' W 015°14'815.0
2018-Jan-03 00:30N 28°11' W 015°20'5 9.7
2018-Jan-03 00:00N 28°08' W 015°25'1 1.8
2018-Jan-02 23:30N 28°09' W 015°25'0 0.0
2018-Jan-02 22:57N 28°09' W 015°25'0 0.0
2018-Jan-02 22:28N 28°09' W 015°25'0 0.0
2018-Jan-02 21:58N 28°09' W 015°25'0 0.0
2018-Jan-02 21:24N 28°09' W 015°25'0 0.0
2018-Jan-02 20:55N 28°09' W 015°25'0 0.0
2018-Jan-02 20:25N 28°09' W 015°25'0 0.0
2018-Jan-02 19:58N 28°09' W 015°25'0 0.0
2018-Jan-02 19:30N 28°09' W 015°25'0 0.0
2018-Jan-02 18:55N 28°09' W 015°25'0 0.0
2018-Jan-02 18:28N 28°09' W 015°25'0 0.0
2018-Jan-02 17:58N 28°09' W 015°25'0 0.9
2018-Jan-02 17:30N 28°09' W 015°25'2 3.9
2018-Jan-02 17:01N 28°07' W 015°23'4 8.1
2018-Jan-02 16:30N 28°11' W 015°23'815.1
2018-Jan-02 16:00N 28°14' W 015°31'815.1
2018-Jan-02 15:30N 28°17' W 015°39'715.0
2018-Jan-02 15:00N 28°20' W 015°47'815.1
2018-Jan-02 14:30N 28°22' W 015°55'715.0
2018-Jan-02 14:00N 28°25' W 016°03'815.1
2018-Jan-02 13:30N 28°28' W 016°11'3 4.9
2018-Jan-02 12:58N 28°29' W 016°13'0 0.0
2018-Jan-02 12:30N 28°29' W 016°13'0 0.0
2018-Jan-02 12:00N 28°29' W 016°13'0 0.0
2018-Jan-02 11:28N 28°29' W 016°13'0 0.0
2018-Jan-02 10:58N 28°29' W 016°13'0 0.0
2018-Jan-02 10:29N 28°29' W 016°13'0 0.0
2018-Jan-02 10:00N 28°29' W 016°13'0 0.0
2018-Jan-02 09:31N 28°29' W 016°13'0 0.0
2018-Jan-02 08:30N 28°29' W 016°13'0 0.0
2018-Jan-02 08:00N 28°29' W 016°13'0 0.0
2018-Jan-02 07:30N 28°29' W 016°13'0 0.0
2018-Jan-02 06:55N 28°29' W 016°13'0 0.0
2018-Jan-02 06:28N 28°29' W 016°13'0 0.0
2018-Jan-02 05:58N 28°29' W 016°13'0 0.0
2018-Jan-02 05:29N 28°29' W 016°13'0 0.0
2018-Jan-02 04:29N 28°29' W 016°13'0 0.0
2018-Jan-02 03:59N 28°29' W 016°13'0 0.0
2018-Jan-02 03:29N 28°29' W 016°13'0 0.0
2018-Jan-02 02:58N 28°29' W 016°13'0 0.0
2018-Jan-02 02:28N 28°29' W 016°13'0 0.0
2018-Jan-02 01:59N 28°29' W 016°13'0 0.0
2018-Jan-02 01:29N 28°29' W 016°13'0 0.0
2018-Jan-02 01:00N 28°29' W 016°13'0 0.0
2018-Jan-02 00:30N 28°29' W 016°13'0 0.0
2018-Jan-01 23:58N 28°29' W 016°13'0 0.0
2018-Jan-01 23:28N 28°29' W 016°13'0 0.0
2018-Jan-01 22:58N 28°29' W 016°13'0 0.0
2018-Jan-01 22:28N 28°29' W 016°13'0 0.0
2018-Jan-01 21:58N 28°29' W 016°13'0 0.0
2018-Jan-01 21:29N 28°29' W 016°13'0 0.0
2018-Jan-01 20:59N 28°29' W 016°13'0 0.0
2018-Jan-01 20:29N 28°29' W 016°13'0 0.0
2018-Jan-01 20:00N 28°29' W 016°13'0 0.0
2018-Jan-01 19:30N 28°29' W 016°13'0 0.0
2018-Jan-01 19:00N 28°29' W 016°13'0 0.0
2018-Jan-01 18:30N 28°29' W 016°13'0 0.0
2018-Jan-01 17:59N 28°29' W 016°13'0 0.0
2018-Jan-01 17:30N 28°29' W 016°13'0 0.0
2018-Jan-01 15:00N 28°29' W 016°13'0 0.0
2018-Jan-01 14:30N 28°29' W 016°13'0 0.0
2018-Jan-01 13:59N 28°29' W 016°13'0 0.0
2018-Jan-01 13:29N 28°29' W 016°13'0 0.0
2018-Jan-01 12:59N 28°29' W 016°13'0 0.0
2018-Jan-01 11:59N 28°29' W 016°13'0 0.0
2018-Jan-01 11:30N 28°29' W 016°13'0 0.0
2018-Jan-01 11:00N 28°29' W 016°13'0 0.0
2018-Jan-01 10:28N 28°29' W 016°13'0 0.0
2018-Jan-01 10:01N 28°29' W 016°13'0 0.0
2018-Jan-01 09:29N 28°29' W 016°13'0 0.0
2018-Jan-01 08:30N 28°29' W 016°13'0 0.0
2018-Jan-01 07:59N 28°29' W 016°13'0 0.0
2018-Jan-01 07:24N 28°29' W 016°13'0 0.0
2018-Jan-01 07:00N 28°29' W 016°13'0 0.0
2018-Jan-01 06:00N 28°29' W 016°13'1 1.8
2018-Jan-01 05:30N 28°29' W 016°13'4 8.8
2018-Jan-01 05:01N 28°30' W 016°08'1514.9
2018-Jan-01 04:01N 28°40' W 015°56'1314.7
2018-Jan-01 03:08N 28°49' W 015°46'314.9
2018-Jan-01 02:57N 28°51' W 015°43'714.7
2018-Jan-01 02:30N 28°56' W 015°38'714.7
2018-Jan-01 02:00N 29°01' W 015°32'1314.9
2018-Jan-01 01:06N 29°11' W 015°21'914.8
2018-Jan-01 00:30N 29°17' W 015°14'6114.8
2017-Dec-31 20:23N 29°59' W 014°23'1014.7
2017-Dec-31 19:43N 30°05' W 014°15'135 8.6
2017-Dec-31 04:00N 31°44' W 012°27'  
Track history (hours):
 
Tides and Currents Weather Stations Pressure Air Temp Water Temp Dewpoint Dewpoint Depression Visibility Wind Speed Wind Dir Waves Ship Positions

OPDR Andalucia

Last reported at 2018-Jan-09 16:21 UTC. Time now 2018-Jan-19 19:30 UTC.
Position N 28°39' W 014°52'.
Warning: this ship's position is 10 days out of date.

Length 145 m; draft 5 m.

Type: Ship (hazmat cat A). MMSI: 225302000.

Date/timePositionNaut miles runAvg speedWind from/ knotsBaromVisibWave heightAir tempDewpointWater temp
2018-Jan-09 16:21N 28°39' W 014°52'515.4
2018-Jan-09 16:00N 28°35' W 014°56'815.3
2018-Jan-09 15:30N 28°30' W 015°02'815.4
2018-Jan-09 15:00N 28°24' W 015°08'815.3
2018-Jan-09 14:30N 28°18' W 015°13'815.2
2018-Jan-09 14:00N 28°12' W 015°19'714.1
2018-Jan-09 13:30N 28°07' W 015°24'2 2.9
2018-Jan-09 12:53N 28°09' W 015°25'0 0.0
2018-Jan-09 12:28N 28°09' W 015°25'0 0.0
2018-Jan-09 11:58N 28°09' W 015°25'0 0.0
2018-Jan-09 11:28N 28°09' W 015°25'0 0.0
2018-Jan-09 10:58N 28°09' W 015°25'0 0.0
2018-Jan-09 10:28N 28°09' W 015°25'0 0.0
2018-Jan-09 09:56N 28°09' W 015°25'0 0.0
2018-Jan-09 09:22N 28°09' W 015°25'0 0.0
2018-Jan-09 08:52N 28°09' W 015°25'0 0.0
2018-Jan-09 08:28N 28°09' W 015°25'0 0.0
2018-Jan-09 07:56N 28°09' W 015°25'0 0.0
2018-Jan-09 07:29N 28°09' W 015°25'0 0.0
2018-Jan-09 07:00N 28°09' W 015°25'0 0.0
2018-Jan-09 06:22N 28°09' W 015°25'0 0.0
2018-Jan-09 05:54N 28°09' W 015°25'0 0.0
2018-Jan-09 05:26N 28°09' W 015°25'0 0.0
2018-Jan-09 04:56N 28°09' W 015°25'0 0.0
2018-Jan-09 04:24N 28°09' W 015°25'0 0.0
2018-Jan-09 03:53N 28°09' W 015°25'0 0.0
2018-Jan-09 03:30N 28°09' W 015°25'0 0.0
2018-Jan-09 02:58N 28°09' W 015°25'0 0.0
2018-Jan-09 02:30N 28°09' W 015°25'0 0.0
2018-Jan-09 01:58N 28°09' W 015°25'0 0.0
2018-Jan-09 01:30N 28°09' W 015°25'0 0.0
2018-Jan-09 01:00N 28°09' W 015°25'0 0.0
2018-Jan-09 00:28N 28°09' W 015°25'0 0.0
2018-Jan-09 00:00N 28°09' W 015°25'0 0.0
2018-Jan-08 23:28N 28°09' W 015°25'2 3.4
2018-Jan-08 23:01N 28°07' W 015°24'2 3.4
2018-Jan-08 22:30N 28°08' W 015°23'0 0.9
2018-Jan-08 22:00N 28°08' W 015°23'5 9.5
2018-Jan-08 21:30N 28°13' W 015°24'714.8
2018-Jan-08 21:00N 28°15' W 015°32'715.0
2018-Jan-08 20:30N 28°18' W 015°40'815.1
2018-Jan-08 20:00N 28°21' W 015°48'815.2
2018-Jan-08 19:30N 28°23' W 015°56'815.1
2018-Jan-08 19:00N 28°26' W 016°04'9 1.3
2018-Jan-08 12:26N 28°29' W 016°13'0 0.0
2018-Jan-08 11:58N 28°29' W 016°13'0 0.0
2018-Jan-08 11:29N 28°29' W 016°13'0 0.0
2018-Jan-08 10:59N 28°29' W 016°13'0 0.0
2018-Jan-08 10:29N 28°29' W 016°13'0 0.0
2018-Jan-08 09:59N 28°29' W 016°13'0 0.0
2018-Jan-08 09:29N 28°29' W 016°13'0 0.0
2018-Jan-08 09:00N 28°29' W 016°13'0 0.0
2018-Jan-08 08:30N 28°29' W 016°13'0 0.0
2018-Jan-08 07:58N 28°29' W 016°13'0 0.0
2018-Jan-08 07:30N 28°29' W 016°13'0 0.0
2018-Jan-08 07:00N 28°29' W 016°13'1 1.7
2018-Jan-08 06:30N 28°29' W 016°13'5 9.8
2018-Jan-08 06:01N 28°30' W 016°08'713.6
2018-Jan-08 05:31N 28°34' W 016°02'714.0
2018-Jan-08 05:00N 28°39' W 015°56'  
2018-Jan-03 15:14N 30°49' W 012°42'314.5
2018-Jan-03 15:01N 30°47' W 012°45'714.4
2018-Jan-03 14:30N 30°41' W 012°50'714.7
2018-Jan-03 14:00N 30°36' W 012°56'714.4
2018-Jan-03 13:30N 30°30' W 013°01'714.0
2018-Jan-03 13:00N 30°25' W 013°06'714.3
2018-Jan-03 12:30N 30°19' W 013°12'714.0
2018-Jan-03 12:00N 30°14' W 013°17'5413.8
2018-Jan-03 08:07N 29°34' W 013°58'214.0
2018-Jan-03 08:00N 29°32' W 013°59'714.0
2018-Jan-03 07:30N 29°27' W 014°04'814.3
2018-Jan-03 06:58N 29°21' W 014°10'714.3
2018-Jan-03 06:30N 29°16' W 014°15'714.2
2018-Jan-03 06:00N 29°11' W 014°20'714.3
2018-Jan-03 05:30N 29°06' W 014°26'814.3
2018-Jan-03 04:55N 28°59' W 014°32'714.4
2018-Jan-03 04:26N 28°54' W 014°37'614.3
2018-Jan-03 04:01N 28°50' W 014°42'714.4
2018-Jan-03 03:30N 28°44' W 014°47'714.4
2018-Jan-03 03:00N 28°39' W 014°53'714.4
2018-Jan-03 02:30N 28°33' W 014°58'714.4
2018-Jan-03 02:00N 28°28' W 015°04'714.6
2018-Jan-03 01:31N 28°22' W 015°09'714.8
2018-Jan-03 01:00N 28°17' W 015°14'815.0
2018-Jan-03 00:30N 28°11' W 015°20'5 9.7
2018-Jan-03 00:00N 28°08' W 015°25'1 1.8
2018-Jan-02 23:30N 28°09' W 015°25'0 0.0
2018-Jan-02 22:57N 28°09' W 015°25'0 0.0
2018-Jan-02 22:28N 28°09' W 015°25'0 0.0
2018-Jan-02 21:58N 28°09' W 015°25'0 0.0
2018-Jan-02 21:24N 28°09' W 015°25'0 0.0
2018-Jan-02 20:55N 28°09' W 015°25'0 0.0
2018-Jan-02 20:25N 28°09' W 015°25'0 0.0
2018-Jan-02 19:58N 28°09' W 015°25'0 0.0
2018-Jan-02 19:30N 28°09' W 015°25'0 0.0
2018-Jan-02 18:55N 28°09' W 015°25'0 0.0
2018-Jan-02 18:28N 28°09' W 015°25'0 0.0
2018-Jan-02 17:58N 28°09' W 015°25'0 0.9
2018-Jan-02 17:30N 28°09' W 015°25'2 3.9
2018-Jan-02 17:01N 28°07' W 015°23'4 8.1
2018-Jan-02 16:30N 28°11' W 015°23'815.1
2018-Jan-02 16:00N 28°14' W 015°31'815.1
2018-Jan-02 15:30N 28°17' W 015°39'715.0
2018-Jan-02 15:00N 28°20' W 015°47'815.1
2018-Jan-02 14:30N 28°22' W 015°55'715.0
2018-Jan-02 14:00N 28°25' W 016°03'815.1
2018-Jan-02 13:30N 28°28' W 016°11'3 4.9
2018-Jan-02 12:58N 28°29' W 016°13'0 0.0
2018-Jan-02 12:30N 28°29' W 016°13'0 0.0
2018-Jan-02 12:00N 28°29' W 016°13'0 0.0
2018-Jan-02 11:28N 28°29' W 016°13'0 0.0
2018-Jan-02 10:58N 28°29' W 016°13'0 0.0
2018-Jan-02 10:29N 28°29' W 016°13'0 0.0
2018-Jan-02 10:00N 28°29' W 016°13'0 0.0
2018-Jan-02 09:31N 28°29' W 016°13'0 0.0
2018-Jan-02 08:30N 28°29' W 016°13'0 0.0
2018-Jan-02 08:00N 28°29' W 016°13'0 0.0
2018-Jan-02 07:30N 28°29' W 016°13'0 0.0
2018-Jan-02 06:55N 28°29' W 016°13'0 0.0
2018-Jan-02 06:28N 28°29' W 016°13'0 0.0
2018-Jan-02 05:58N 28°29' W 016°13'0 0.0
2018-Jan-02 05:29N 28°29' W 016°13'0 0.0
2018-Jan-02 04:29N 28°29' W 016°13'0 0.0
2018-Jan-02 03:59N 28°29' W 016°13'0 0.0
2018-Jan-02 03:29N 28°29' W 016°13'0 0.0
2018-Jan-02 02:58N 28°29' W 016°13'0 0.0
2018-Jan-02 02:28N 28°29' W 016°13'0 0.0
2018-Jan-02 01:59N 28°29' W 016°13'0 0.0
2018-Jan-02 01:29N 28°29' W 016°13'0 0.0
2018-Jan-02 01:00N 28°29' W 016°13'0 0.0
2018-Jan-02 00:30N 28°29' W 016°13'0 0.0
2018-Jan-01 23:58N 28°29' W 016°13'0 0.0
2018-Jan-01 23:28N 28°29' W 016°13'0 0.0
2018-Jan-01 22:58N 28°29' W 016°13'0 0.0
2018-Jan-01 22:28N 28°29' W 016°13'0 0.0
2018-Jan-01 21:58N 28°29' W 016°13'0 0.0
2018-Jan-01 21:29N 28°29' W 016°13'0 0.0
2018-Jan-01 20:59N 28°29' W 016°13'0 0.0
2018-Jan-01 20:29N 28°29' W 016°13'0 0.0
2018-Jan-01 20:00N 28°29' W 016°13'0 0.0
2018-Jan-01 19:30N 28°29' W 016°13'0 0.0
2018-Jan-01 19:00N 28°29' W 016°13'0 0.0
2018-Jan-01 18:30N 28°29' W 016°13'0 0.0
2018-Jan-01 17:59N 28°29' W 016°13'0 0.0
2018-Jan-01 17:30N 28°29' W 016°13'0 0.0
2018-Jan-01 15:00N 28°29' W 016°13'0 0.0
2018-Jan-01 14:30N 28°29' W 016°13'0 0.0
2018-Jan-01 13:59N 28°29' W 016°13'0 0.0
2018-Jan-01 13:29N 28°29' W 016°13'0 0.0
2018-Jan-01 12:59N 28°29' W 016°13'0 0.0
2018-Jan-01 11:59N 28°29' W 016°13'0 0.0
2018-Jan-01 11:30N 28°29' W 016°13'0 0.0
2018-Jan-01 11:00N 28°29' W 016°13'0 0.0
2018-Jan-01 10:28N 28°29' W 016°13'0 0.0
2018-Jan-01 10:01N 28°29' W 016°13'0 0.0
2018-Jan-01 09:29N 28°29' W 016°13'0 0.0
2018-Jan-01 08:30N 28°29' W 016°13'0 0.0
2018-Jan-01 07:59N 28°29' W 016°13'0 0.0
2018-Jan-01 07:24N 28°29' W 016°13'0 0.0
2018-Jan-01 07:00N 28°29' W 016°13'0 0.0
2018-Jan-01 06:00N 28°29' W 016°13'1 1.8
2018-Jan-01 05:30N 28°29' W 016°13'4 8.8
2018-Jan-01 05:01N 28°30' W 016°08'1514.9
2018-Jan-01 04:01N 28°40' W 015°56'1314.7
2018-Jan-01 03:08N 28°49' W 015°46'314.9
2018-Jan-01 02:57N 28°51' W 015°43'714.7
2018-Jan-01 02:30N 28°56' W 015°38'714.7
2018-Jan-01 02:00N 29°01' W 015°32'1314.9
2018-Jan-01 01:06N 29°11' W 015°21'914.8
2018-Jan-01 00:30N 29°17' W 015°14'6114.8
2017-Dec-31 20:23N 29°59' W 014°23'1014.7
2017-Dec-31 19:43N 30°05' W 014°15'135 8.6
2017-Dec-31 04:00N 31°44' W 012°27'  

Dump ship's entire track history